createdAt,value
2022-09-23T00:01:35.660Z,99503.25
2022-09-23T00:04:04.459Z,99499.94
2022-09-23T00:06:33.527Z,99502.59
2022-09-23T00:09:03.546Z,99498.59
2022-09-23T00:11:33.827Z,99499.69
2022-09-23T00:14:02.717Z,99495.09
2022-09-23T00:16:34.519Z,99495.47
2022-09-23T00:19:06.297Z,99492.25
2022-09-23T00:21:35.126Z,99488.72
2022-09-23T00:24:05.710Z,99489.78
2022-09-23T00:26:34.350Z,99485.09
2022-09-23T00:29:03.032Z,99486.88
2022-09-23T00:31:31.880Z,99483.34
2022-09-23T00:34:02.657Z,99487.00
2022-09-23T00:36:33.346Z,99485.34
2022-09-23T00:39:04.555Z,99484.72
2022-09-23T00:41:35.825Z,99484.28
2022-09-23T00:44:38.070Z,99485.38
2022-09-23T00:47:08.920Z,99481.69
2022-09-23T00:49:37.526Z,99481.59
2022-09-23T00:52:14.632Z,99478.38
2022-09-23T00:54:46.228Z,99475.25
2022-09-23T00:57:20.119Z,99476.25
2022-09-23T00:59:51.533Z,99478.53
2022-09-23T01:02:22.214Z,99478.66
2022-09-23T01:04:52.594Z,99478.91
2022-09-23T01:07:21.929Z,99477.50
2022-09-23T01:09:51.417Z,99478.53
2022-09-23T01:12:59.434Z,99470.72
2022-09-23T01:15:42.268Z,99462.16
2022-09-23T01:18:27.452Z,99462.25
2022-09-23T01:21:16.743Z,99458.97
2022-09-23T01:24:35.519Z,99450.13
2022-09-23T01:27:19.716Z,99453.09
2022-09-23T01:30:17.952Z,99451.72
2022-09-23T01:33:10.181Z,99446.91
2022-09-23T01:35:51.697Z,99439.50
2022-09-23T01:38:39.853Z,99441.66
2022-09-23T01:41:27.651Z,99433.63
2022-09-23T01:44:05.031Z,99436.91
2022-09-23T01:46:42.896Z,99436.63
2022-09-23T01:49:21.354Z,99436.97
2022-09-23T01:51:58.866Z,99435.69
2022-09-23T01:54:39.515Z,99435.81
2022-09-23T01:57:18.299Z,99429.16
2022-09-23T01:59:53.204Z,99420.56
2022-09-23T02:02:29.342Z,99426.28
2022-09-23T02:05:08.109Z,99422.47
2022-09-23T02:07:48.238Z,99417.44
2022-09-23T02:10:24.537Z,99414.84
2022-09-23T02:13:01.006Z,99418.44
2022-09-23T02:15:36.811Z,99411.06
2022-09-23T02:18:14.633Z,99411.94
2022-09-23T02:20:47.144Z,99413.00
2022-09-23T02:23:24.250Z,99410.22
2022-09-23T02:26:04.328Z,99410.25
2022-09-23T02:28:41.984Z,99410.16
2022-09-23T02:31:23.061Z,99408.56
2022-09-23T02:33:58.740Z,99406.47
2022-09-23T02:36:36.876Z,99398.16
2022-09-23T02:39:12.546Z,99397.47
2022-09-23T02:41:56.729Z,99390.66
2022-09-23T02:44:25.786Z,99391.34
2022-09-23T02:46:54.452Z,99386.19
2022-09-23T02:49:27.014Z,99389.59
2022-09-23T02:52:01.305Z,99386.59
2022-09-23T02:54:30.846Z,99386.34
2022-09-23T02:57:03.937Z,99385.06
2022-09-23T02:59:35.209Z,99383.44
2022-09-23T03:02:34.115Z,99386.66
2022-09-23T03:05:18.255Z,99385.97
2022-09-23T03:08:08.979Z,99384.22
2022-09-23T03:11:01.939Z,99371.31
2022-09-23T03:13:43.764Z,99366.63
2022-09-23T03:16:25.832Z,99372.72
2022-09-23T03:19:07.165Z,99365.19
2022-09-23T03:21:44.141Z,99372.09
2022-09-23T03:24:18.169Z,99371.84
2022-09-23T03:27:13.987Z,99356.31
2022-09-23T03:29:48.675Z,99350.38
2022-09-23T03:32:21.383Z,99350.25
2022-09-23T03:34:54.900Z,99350.19
2022-09-23T03:37:31.548Z,99346.66
2022-09-23T03:40:11.023Z,99354.63
2022-09-23T03:42:41.285Z,99350.69
2022-09-23T03:45:18.431Z,99351.78
2022-09-23T03:47:47.858Z,99349.31
2022-09-23T03:50:18.515Z,99344.41
2022-09-23T03:52:47.552Z,99352.38
2022-09-23T03:55:19.328Z,99343.00
2022-09-23T03:57:48.729Z,99337.44
2022-09-23T04:00:18.799Z,99348.28
2022-09-23T04:02:47.426Z,99349.72
2022-09-23T04:05:16.666Z,99347.22
2022-09-23T04:07:45.768Z,99348.03
2022-09-23T04:10:14.435Z,99347.22
2022-09-23T04:12:44.414Z,99331.69
2022-09-23T04:15:14.120Z,99335.78
2022-09-23T04:17:42.756Z,99331.63
2022-09-23T04:20:11.657Z,99328.47
2022-09-23T04:22:41.168Z,99327.25
2022-09-23T04:25:10.828Z,99325.81
2022-09-23T04:27:40.076Z,99323.22
2022-09-23T04:30:12.227Z,99322.19
2022-09-23T04:32:41.371Z,99329.34
2022-09-23T04:35:10.244Z,99325.09
2022-09-23T04:37:39.122Z,99327.66
2022-09-23T04:40:09.913Z,99326.88
2022-09-23T04:42:38.596Z,99326.88
2022-09-23T04:45:10.272Z,99321.13
2022-09-23T04:47:38.883Z,99323.94
2022-09-23T04:50:08.834Z,99328.22
2022-09-23T04:52:38.745Z,99324.78
2022-09-23T04:55:11.297Z,99322.44
2022-09-23T04:57:40.070Z,99318.47
2022-09-23T05:00:15.421Z,99316.25
2022-09-23T05:02:45.815Z,99318.38
2022-09-23T05:05:21.411Z,99319.34
2022-09-23T05:07:50.616Z,99318.22
2022-09-23T05:10:20.425Z,99319.84
2022-09-23T05:12:53.622Z,99312.72
2022-09-23T05:15:28.428Z,99314.03
2022-09-23T05:17:59.204Z,99319.13
2022-09-23T05:20:28.758Z,99320.97
2022-09-23T05:22:57.343Z,99325.41
2022-09-23T05:25:25.995Z,99329.44
2022-09-23T05:27:54.575Z,99317.84
2022-09-23T05:30:23.196Z,99323.38
2022-09-23T05:32:53.466Z,99324.53
2022-09-23T05:35:22.086Z,99325.81
2022-09-23T05:37:50.704Z,99323.75
2022-09-23T05:40:19.257Z,99324.63
2022-09-23T05:42:47.906Z,99322.59
2022-09-23T05:45:17.442Z,99322.66
2022-09-23T05:47:46.102Z,99321.53
2022-09-23T05:50:16.493Z,99313.69
2022-09-23T05:52:46.140Z,99321.91
2022-09-23T05:55:14.946Z,99320.25
2022-09-23T05:57:43.606Z,99315.84
2022-09-23T06:00:14.108Z,99311.31
2022-09-23T06:02:42.729Z,99312.56
2022-09-23T06:05:12.500Z,99314.66
2022-09-23T06:07:42.503Z,99310.38
2022-09-23T06:10:11.666Z,99308.91
2022-09-23T06:12:40.524Z,99315.59
2022-09-23T06:15:10.290Z,99310.72
2022-09-23T06:17:38.924Z,99309.25
2022-09-23T06:20:08.848Z,99315.66
2022-09-23T06:22:39.586Z,99310.97
2022-09-23T06:25:12.365Z,99313.22
2022-09-23T06:27:41.062Z,99316.09
2022-09-23T06:30:11.396Z,99314.31
2022-09-23T06:32:39.991Z,99312.09
2022-09-23T06:35:21.353Z,99309.22
2022-09-23T06:37:53.458Z,99306.00
2022-09-23T06:40:23.941Z,99308.06
2022-09-23T06:42:59.915Z,99309.91
2022-09-23T06:45:29.683Z,99309.31
2022-09-23T06:47:59.598Z,99311.78
2022-09-23T06:50:29.178Z,99312.22
2022-09-23T06:52:58.575Z,99305.66
2022-09-23T06:55:29.114Z,99299.91
2022-09-23T06:57:59.778Z,99304.81
2022-09-23T07:00:29.224Z,99298.25
2022-09-23T07:02:57.999Z,99304.00
2022-09-23T07:05:26.650Z,99304.38
2022-09-23T07:07:55.312Z,99297.81
2022-09-23T07:10:23.926Z,99304.34
2022-09-23T07:12:53.830Z,99303.88
2022-09-23T07:15:22.691Z,99302.66
2022-09-23T07:17:51.225Z,99312.03
2022-09-23T07:20:19.899Z,99307.09
2022-09-23T07:22:52.309Z,99307.50
2022-09-23T07:25:21.284Z,99300.84
2022-09-23T07:27:49.983Z,99305.75
2022-09-23T07:30:25.219Z,99305.28
2022-09-23T07:32:54.614Z,99309.13
2022-09-23T07:35:23.257Z,99304.31
2022-09-23T07:37:52.314Z,99306.75
2022-09-23T07:40:21.140Z,99300.09
2022-09-23T07:42:49.868Z,99294.28
2022-09-23T07:45:21.122Z,99301.59
2022-09-23T07:47:50.135Z,99297.41
2022-09-23T07:50:19.160Z,99301.41
2022-09-23T07:52:47.771Z,99300.13
2022-09-23T07:55:20.267Z,99310.06
2022-09-23T07:57:49.723Z,99301.56
2022-09-23T08:00:21.001Z,99294.44
2022-09-23T08:02:52.859Z,99293.47
2022-09-23T08:05:22.769Z,99302.38
2022-09-23T08:07:51.438Z,99303.88
2022-09-23T08:10:21.147Z,99296.72
2022-09-23T08:12:49.753Z,99304.16
2022-09-23T08:15:19.827Z,99299.22
2022-09-23T08:17:48.699Z,99299.59
2022-09-23T08:20:31.370Z,99299.53
2022-09-23T08:23:00.186Z,99297.81
2022-09-23T08:25:30.946Z,99296.91
2022-09-23T08:28:01.374Z,99295.16
2022-09-23T08:30:31.434Z,99289.69
2022-09-23T08:33:00.640Z,99298.44
2022-09-23T08:35:29.327Z,99294.78
2022-09-23T08:37:58.918Z,99284.13
2022-09-23T08:40:27.807Z,99290.03
2022-09-23T08:42:56.910Z,99275.59
2022-09-23T08:45:29.201Z,99284.28
2022-09-23T08:48:12.184Z,99279.50
2022-09-23T08:50:46.543Z,99278.13
2022-09-23T08:53:26.387Z,99276.28
2022-09-23T08:55:59.551Z,99278.47
2022-09-23T08:58:48.238Z,99283.16
2022-09-23T09:01:27.544Z,99273.09
2022-09-23T09:04:01.307Z,99261.44
2022-09-23T09:06:51.699Z,99271.81
2022-09-23T09:09:29.499Z,99268.97
2022-09-23T09:12:06.115Z,99274.81
2022-09-23T09:14:48.913Z,99269.94
2022-09-23T09:17:34.897Z,99269.16
2022-09-23T09:20:23.355Z,99275.84
2022-09-23T09:22:58.009Z,99269.53
2022-09-23T09:25:44.772Z,99271.56
2022-09-23T09:28:21.042Z,99259.31
2022-09-23T09:30:57.287Z,99271.69
2022-09-23T09:33:37.573Z,99271.94
2022-09-23T09:36:25.862Z,99261.97
2022-09-23T09:38:56.434Z,99262.97
2022-09-23T09:41:31.287Z,99260.38
2022-09-23T09:44:10.513Z,99253.34
2022-09-23T09:47:17.823Z,99253.09
2022-09-23T09:50:00.787Z,99252.84
2022-09-23T09:52:31.857Z,99247.97
2022-09-23T09:55:26.612Z,99253.91
2022-09-23T09:58:01.824Z,99246.44
2022-09-23T10:00:44.126Z,99240.81
2022-09-23T10:03:38.691Z,99243.50
2022-09-23T10:06:20.513Z,99241.06
2022-09-23T10:09:14.572Z,99237.78
2022-09-23T10:11:46.641Z,99230.53
2022-09-23T10:14:19.032Z,99239.41
2022-09-23T10:17:05.553Z,99236.50
2022-09-23T10:19:38.081Z,99234.38
2022-09-23T10:22:22.443Z,99235.31
2022-09-23T10:24:56.236Z,99232.59
2022-09-23T10:27:32.539Z,99234.47
2022-09-23T10:30:04.996Z,99223.50
2022-09-23T10:32:37.619Z,99225.13
2022-09-23T10:35:18.576Z,99226.28
2022-09-23T10:37:51.219Z,99218.31
2022-09-23T10:40:48.521Z,99222.47
2022-09-23T10:44:00.908Z,99217.56
2022-09-23T10:46:41.702Z,99215.53
2022-09-23T10:49:46.327Z,99205.47
2022-09-23T10:52:39.851Z,99201.09
2022-09-23T10:55:28.080Z,99197.88
2022-09-23T10:58:19.505Z,99197.44
2022-09-23T11:01:03.175Z,99197.25
2022-09-23T11:04:03.454Z,99189.19
2022-09-23T11:06:50.451Z,99183.97
2022-09-23T11:09:40.237Z,99177.53
2022-09-23T11:12:24.716Z,99179.16
2022-09-23T11:15:19.176Z,99172.59
2022-09-23T11:18:17.288Z,99174.38
2022-09-23T11:21:02.127Z,99167.53
2022-09-23T11:23:51.491Z,99166.91
2022-09-23T11:26:37.887Z,99171.69
2022-09-23T11:29:56.621Z,99163.88
2022-09-23T11:33:04.665Z,99166.41
2022-09-23T11:35:42.642Z,99157.78
2022-09-23T11:38:21.333Z,99159.22
2022-09-23T11:40:56.391Z,99150.25
2022-09-23T11:43:28.835Z,99153.97
2022-09-23T11:46:09.606Z,99152.81
2022-09-23T11:48:46.559Z,99150.50
2022-09-23T11:51:22.367Z,99144.22
2022-09-23T11:53:59.789Z,99141.97
2022-09-23T11:56:37.077Z,99139.81
2022-09-23T11:59:27.191Z,99137.06
2022-09-23T12:02:20.120Z,99128.72
2022-09-23T12:05:03.042Z,99136.78
2022-09-23T12:07:47.951Z,99122.47
2022-09-23T12:10:18.902Z,99130.81
2022-09-23T12:12:59.550Z,99126.50
2022-09-23T12:15:50.667Z,99130.53
2022-09-23T12:18:44.456Z,99132.66
2022-09-23T12:21:51.533Z,99120.75
2022-09-23T12:24:52.122Z,99114.06
2022-09-23T12:27:31.967Z,99114.38
2022-09-23T12:30:04.246Z,99111.69
2022-09-23T12:32:34.039Z,99116.91
2022-09-23T12:35:04.496Z,99114.22
2022-09-23T12:37:38.794Z,99113.13
2022-09-23T12:40:19.360Z,99110.75
2022-09-23T12:42:50.405Z,99109.13
2022-09-23T12:45:37.415Z,99109.44
2022-09-23T12:48:29.216Z,99102.47
2022-09-23T12:51:16.962Z,99102.50
2022-09-23T12:54:16.894Z,99098.78
2022-09-23T12:57:04.601Z,99096.94
2022-09-23T12:59:59.279Z,99093.47
2022-09-23T13:02:37.302Z,99090.22
2022-09-23T13:05:48.840Z,99085.66
2022-09-23T13:08:24.554Z,99080.56
2022-09-23T13:10:59.243Z,99084.91
2022-09-23T13:13:37.164Z,99070.38
2022-09-23T13:16:23.058Z,99073.34
2022-09-23T13:18:54.716Z,99063.84
2022-09-23T13:22:01.152Z,99065.44
2022-09-23T13:25:01.440Z,99063.34
2022-09-23T13:27:33.878Z,99067.69
2022-09-23T13:30:07.883Z,99053.38
2022-09-23T13:32:46.014Z,99054.19
2022-09-23T13:35:26.183Z,99061.47
2022-09-23T13:37:56.347Z,99060.69
2022-09-23T13:40:31.191Z,99050.44
2022-09-23T13:43:04.539Z,99043.69
2022-09-23T13:45:38.884Z,99038.53
2022-09-23T13:48:13.378Z,99044.75
2022-09-23T13:50:49.172Z,99032.34
2022-09-23T13:53:26.336Z,99035.03
2022-09-23T13:56:06.524Z,99037.44
2022-09-23T13:58:36.895Z,99030.97
2022-09-23T14:01:10.418Z,99034.72
2022-09-23T14:03:40.543Z,99026.03
2022-09-23T14:06:14.802Z,99020.63
2022-09-23T14:08:47.380Z,99021.41
2022-09-23T14:11:41.998Z,99024.63
2022-09-23T14:14:21.356Z,99016.56
2022-09-23T14:16:52.464Z,99023.63
2022-09-23T14:19:27.879Z,99015.81
2022-09-23T14:21:57.810Z,99014.44
2022-09-23T14:24:34.599Z,99005.00
2022-09-23T14:27:17.326Z,99007.41
2022-09-23T14:29:49.435Z,98996.84
2022-09-23T14:32:24.637Z,99004.91
2022-09-23T14:35:06.956Z,98997.06
2022-09-23T14:38:02.000Z,98988.72
2022-09-23T14:40:33.988Z,98988.94
2022-09-23T14:43:12.727Z,98990.31
2022-09-23T14:45:42.619Z,98985.41
2022-09-23T14:48:18.011Z,98987.84
2022-09-23T14:50:52.187Z,98979.47
2022-09-23T14:53:38.703Z,98977.31
2022-09-23T14:56:21.064Z,98980.22
2022-09-23T14:58:55.327Z,98977.81
2022-09-23T15:01:35.897Z,98973.53
2022-09-23T15:04:31.661Z,98977.31
2022-09-23T15:07:07.545Z,98979.44
2022-09-23T15:09:40.938Z,98972.94
2022-09-23T15:12:16.193Z,98973.19
2022-09-23T15:14:55.204Z,98976.94
2022-09-23T15:17:34.508Z,98977.19
2022-09-23T15:20:08.394Z,98973.66
2022-09-23T15:22:45.400Z,98973.34
2022-09-23T15:25:21.491Z,98975.47
2022-09-23T15:28:17.431Z,98969.00
2022-09-23T15:30:48.056Z,98970.59
2022-09-23T15:33:17.855Z,98976.47
2022-09-23T15:35:50.165Z,98967.34
2022-09-23T15:38:18.827Z,98964.06
2022-09-23T15:40:48.519Z,98970.28
2022-09-23T15:43:21.883Z,98960.31
2022-09-23T15:45:55.978Z,98960.84
2022-09-23T15:48:32.902Z,98957.84
2022-09-23T15:51:08.458Z,98960.25
2022-09-23T15:53:38.343Z,98962.66
2022-09-23T15:56:07.838Z,98951.84
2022-09-23T15:58:36.966Z,98961.50
2022-09-23T16:01:08.646Z,98957.44
2022-09-23T16:03:38.064Z,98949.31
2022-09-23T16:06:11.242Z,98950.91
2022-09-23T16:08:42.319Z,98942.00
2022-09-23T16:11:20.238Z,98945.34
2022-09-23T16:13:48.913Z,98940.13
2022-09-23T16:16:21.180Z,98940.59
2022-09-23T16:18:50.844Z,98940.28
2022-09-23T16:21:22.494Z,98941.84
2022-09-23T16:23:53.468Z,98939.66
2022-09-23T16:26:25.675Z,98946.06
2022-09-23T16:28:57.146Z,98943.09
2022-09-23T16:31:31.306Z,98943.59
2022-09-23T16:34:02.573Z,98948.69
2022-09-23T16:36:34.349Z,98944.38
2022-09-23T16:39:06.986Z,98942.69
2022-09-23T16:41:35.871Z,98948.75
2022-09-23T16:44:09.551Z,98937.72
2022-09-23T16:46:42.894Z,98941.81
2022-09-23T16:49:12.576Z,98942.84
2022-09-23T16:51:42.296Z,98949.28
2022-09-23T16:54:13.705Z,98946.25
2022-09-23T16:56:45.304Z,98948.00
2022-09-23T16:59:15.512Z,98941.44
2022-09-23T17:02:03.091Z,98937.31
2022-09-23T17:04:31.789Z,98939.38
2022-09-23T17:07:00.698Z,98941.09
2022-09-23T17:09:34.021Z,98933.81
2022-09-23T17:12:54.106Z,98929.91
2022-09-23T17:15:59.929Z,98935.66
2022-09-23T17:18:31.737Z,98935.81
2022-09-23T17:21:05.088Z,98939.88
2022-09-23T17:26:53.210Z,98942.84
2022-09-23T17:29:49.069Z,98939.09
2022-09-23T17:32:47.496Z,98941.94
2022-09-23T17:35:26.492Z,98937.16
2022-09-23T17:38:08.754Z,98939.19
2022-09-23T17:40:41.954Z,98930.94
2022-09-23T17:43:12.841Z,98932.09
2022-09-23T17:48:34.720Z,98942.00
2022-09-23T17:51:10.151Z,98940.38
2022-09-23T17:53:52.467Z,98946.44
2022-09-23T17:56:26.955Z,98940.53
2022-09-23T17:59:01.534Z,98939.63
2022-09-23T18:01:35.496Z,98944.97
2022-09-23T18:04:09.674Z,98948.03
2022-09-23T18:06:48.630Z,98951.31
2022-09-23T18:09:19.439Z,98947.31
2022-09-23T18:11:49.943Z,98949.25
2022-09-23T18:14:22.583Z,98945.66
2022-09-23T18:17:06.813Z,98950.81
2022-09-23T18:19:37.505Z,98946.75
2022-09-23T18:22:08.237Z,98944.78
2022-09-23T18:24:46.051Z,98949.59
2022-09-23T18:27:14.762Z,98947.28
2022-09-23T18:29:43.932Z,98945.06
2022-09-23T18:32:39.980Z,98941.69
2022-09-23T18:35:31.803Z,98942.78
2022-09-23T18:38:02.378Z,98942.09
2022-09-23T18:40:31.078Z,98941.59
2022-09-23T18:43:19.968Z,98945.91
2022-09-23T18:46:15.150Z,98942.56
2022-09-23T18:49:22.405Z,98946.03
2022-09-23T18:52:09.123Z,98937.69
2022-09-23T18:54:40.077Z,98937.91
2022-09-23T18:57:14.954Z,98941.88
2022-09-23T18:59:48.471Z,98944.19
2022-09-23T19:02:20.211Z,98944.09
2022-09-23T19:04:50.059Z,98939.22
2022-09-23T19:07:19.845Z,98940.53
2022-09-23T19:09:51.574Z,98937.59
2022-09-23T19:12:21.745Z,98934.25
2022-09-23T19:14:51.460Z,98930.97
2022-09-23T19:17:20.811Z,98929.59
2022-09-23T19:19:50.268Z,98933.19
2022-09-23T19:22:19.762Z,98930.97
2022-09-23T19:24:50.223Z,98934.00
2022-09-23T19:27:19.084Z,98933.19
2022-09-23T19:29:58.297Z,98939.81
2022-09-23T19:32:48.567Z,98931.34
2022-09-23T19:35:20.096Z,98926.22
2022-09-23T19:37:50.234Z,98929.13
2022-09-23T19:40:21.549Z,98929.22
2022-09-23T19:42:54.542Z,98931.59
2022-09-23T19:45:24.012Z,98932.69
2022-09-23T19:47:57.857Z,98930.50
2022-09-23T19:50:30.362Z,98927.25
2022-09-23T19:52:59.568Z,98921.53
2022-09-23T19:55:33.855Z,98931.88
2022-09-23T19:58:06.757Z,98919.34
2022-09-23T20:00:36.727Z,98925.72
2022-09-23T20:03:06.660Z,98924.91
2022-09-23T20:05:35.341Z,98930.72
2022-09-23T20:08:10.080Z,98918.75
2022-09-23T20:10:41.303Z,98921.28
2022-09-23T20:13:11.084Z,98920.97
2022-09-23T20:15:39.921Z,98924.69
2022-09-23T20:18:10.243Z,98922.34
2022-09-23T20:20:39.158Z,98920.72
2022-09-23T20:23:07.938Z,98919.78
2022-09-23T20:25:50.329Z,98913.03
2022-09-23T20:28:22.520Z,98912.56
2022-09-23T20:30:52.115Z,98917.56
2022-09-23T20:33:22.364Z,98912.34
2022-09-23T20:35:53.592Z,98905.81
2022-09-23T20:38:22.290Z,98911.84
2022-09-23T20:40:57.059Z,98909.06
2022-09-23T20:43:27.335Z,98909.53
2022-09-23T20:45:56.931Z,98901.13
2022-09-23T20:48:25.858Z,98902.19
2022-09-23T20:50:54.534Z,98899.63
2022-09-23T20:53:24.249Z,98895.78
2022-09-23T20:55:54.575Z,98896.00
2022-09-23T20:58:29.250Z,98894.16
2022-09-23T21:01:03.898Z,98897.75
2022-09-23T21:03:34.094Z,98894.69
2022-09-23T21:06:03.938Z,98898.66
2022-09-23T21:08:33.585Z,98896.78
2022-09-23T21:11:04.401Z,98889.44
2022-09-23T21:13:34.721Z,98892.38
2022-09-23T21:16:08.187Z,98890.28
2022-09-23T21:18:37.331Z,98894.22
2022-09-23T21:21:07.717Z,98888.31
2022-09-23T21:23:40.156Z,98885.03
2022-09-23T21:26:12.156Z,98878.66
2022-09-23T21:28:44.315Z,98871.13
2022-09-23T21:31:22.872Z,98870.53
2022-09-23T21:33:54.883Z,98887.50
2022-09-23T21:36:24.930Z,98885.41
2022-09-23T21:38:55.940Z,98882.97
2022-09-23T21:41:25.206Z,98878.75
2022-09-23T21:43:56.475Z,98880.84
2022-09-23T21:46:28.243Z,98874.22
2022-09-23T21:48:58.831Z,98876.00
2022-09-23T21:51:29.822Z,98871.34
2022-09-23T21:54:01.061Z,98871.94
2022-09-23T21:56:32.939Z,98874.03
2022-09-23T21:59:03.694Z,98875.50
2022-09-23T22:01:35.274Z,98869.72
2022-09-23T22:04:08.410Z,98876.22
2022-09-23T22:06:40.563Z,98872.97
2022-09-23T22:09:13.603Z,98869.00
2022-09-23T22:12:00.729Z,98868.81
2022-09-23T22:14:31.101Z,98861.50
2022-09-23T22:17:02.891Z,98868.22
2022-09-23T22:19:35.380Z,98863.25
2022-09-23T22:22:12.902Z,98858.94
2022-09-23T22:24:41.576Z,98854.97
2022-09-23T22:27:12.178Z,98865.31
2022-09-23T22:30:02.008Z,98858.94
2022-09-23T22:32:43.822Z,98858.34
2022-09-23T22:35:16.836Z,98853.81
2022-09-23T22:37:46.048Z,98847.53
2022-09-23T22:40:16.862Z,98852.06
2022-09-23T22:42:45.902Z,98847.78
2022-09-23T22:45:15.875Z,98848.81
2022-09-23T22:47:46.031Z,98845.22
2022-09-23T22:50:15.618Z,98835.91
2022-09-23T22:52:45.776Z,98832.19
2022-09-23T22:55:14.685Z,98831.28
2022-09-23T22:57:43.268Z,98827.88
2022-09-23T23:00:13.710Z,98831.16
2022-09-23T23:02:43.664Z,98829.53
2022-09-23T23:05:14.655Z,98830.81
2022-09-23T23:07:43.321Z,98827.56
2022-09-23T23:10:12.014Z,98832.53
2022-09-23T23:12:41.703Z,98831.47
2022-09-23T23:15:12.932Z,98827.56
2022-09-23T23:17:43.689Z,98826.25
2022-09-23T23:20:13.894Z,98827.78
2022-09-23T23:22:42.482Z,98820.22
2022-09-23T23:25:11.404Z,98823.94
2022-09-23T23:27:40.005Z,98823.47
2022-09-23T23:30:10.427Z,98823.94
2022-09-23T23:32:39.255Z,98825.56
2022-09-23T23:35:09.137Z,98818.34
2022-09-23T23:37:40.153Z,98823.94
2022-09-23T23:40:10.330Z,98822.31
2022-09-23T23:42:38.923Z,98829.97
2022-09-23T23:45:09.340Z,98826.03
2022-09-23T23:47:38.709Z,98823.38
2022-09-23T23:50:09.192Z,98815.78
2022-09-23T23:52:39.276Z,98817.19
2022-09-23T23:55:08.670Z,98812.44
2022-09-23T23:57:37.251Z,98801.25
